Time;durP1;ratioP1;P1;durP2;ratioP2;P2;SDS_P1;SDS_P2;PMS_P1;PMS_P2;Temp;Humidity;BMP_temperature;BMP_pressure;BME280_temperature;BME280_humidity;BME280_pressure;Samples;Min_cycle;Max_cycle;Signal;HPM_P1;HPM_P2
2023/08/05 00:00:28;;;;;;;6.05;3.35;;;18.90;99.90;;;;;;5107219;28;20036;-83
2023/08/05 00:02:53;;;;;;;7.00;3.47;;;18.90;99.90;;;;;;5073959;28;20031;-82
2023/08/05 00:05:19;;;;;;;8.73;3.15;;;19.00;99.90;;;;;;5057555;28;20027;-84
2023/08/05 00:07:45;;;;;;;5.68;3.50;;;19.00;99.90;;;;;;5073219;28;20023;-83
2023/08/05 00:10:10;;;;;;;6.47;3.65;;;19.00;99.90;;;;;;5089358;28;20027;-83
2023/08/05 00:12:36;;;;;;;4.82;3.10;;;18.90;99.90;;;;;;5106710;28;20114;-82
2023/08/05 00:15:02;;;;;;;7.22;3.45;;;18.90;99.90;;;;;;5102578;28;20317;-83
2023/08/05 00:17:27;;;;;;;11.43;3.17;;;19.00;99.90;;;;;;5089305;28;20272;-81
2023/08/05 00:19:53;;;;;;;3.65;3.00;;;18.90;99.90;;;;;;5072929;28;20081;-82
2023/08/05 00:22:19;;;;;;;6.13;3.83;;;18.90;99.90;;;;;;5089177;28;20032;-81
2023/08/05 00:24:44;;;;;;;5.07;3.28;;;18.90;99.90;;;;;;5073436;28;20098;-83
2023/08/05 00:27:10;;;;;;;6.55;3.35;;;18.80;99.90;;;;;;5072929;28;20031;-82
2023/08/05 00:29:36;;;;;;;4.15;3.25;;;18.70;99.90;;;;;;5104199;28;20035;-82
2023/08/05 00:32:02;;;;;;;5.47;3.33;;;18.70;99.90;;;;;;5101490;28;20069;-81
2023/08/05 00:34:28;;;;;;;5.07;3.30;;;18.80;99.90;;;;;;5089429;28;20039;-81
2023/08/05 00:36:53;;;;;;;6.60;3.60;;;18.80;99.90;;;;;;5072796;28;20031;-82
2023/08/05 00:39:19;;;;;;;6.45;3.47;;;18.70;99.90;;;;;;5089362;28;20039;-83
2023/08/05 00:41:45;;;;;;;9.40;4.78;;;18.70;99.90;;;;;;5089728;28;20041;-82
2023/08/05 00:44:10;;;;;;;4.95;3.42;;;18.60;99.90;;;;;;5089004;28;20104;-82
2023/08/05 00:46:36;;;;;;;4.03;3.65;;;18.60;99.90;;;;;;5088198;28;20054;-82
2023/08/05 00:49:02;;;;;;;7.35;3.72;;;18.60;99.90;;;;;;5072990;28;20370;-83
2023/08/05 00:51:27;;;;;;;6.05;4.20;;;18.50;99.90;;;;;;5072750;28;20075;-83
2023/08/05 00:53:53;;;;;;;7.57;3.65;;;18.50;99.90;;;;;;5073350;28;20043;-83
2023/08/05 00:56:19;;;;;;;6.22;4.00;;;18.40;99.90;;;;;;5089307;28;20051;-83
2023/08/05 00:58:45;;;;;;;7.55;4.25;;;18.50;99.90;;;;;;5073190;28;20114;-83
2023/08/05 01:01:14;;;;;;;6.85;4.05;;;18.50;99.90;;;;;;5089449;28;20035;-84
2023/08/05 01:03:40;;;;;;;5.85;3.90;;;18.50;99.90;;;;;;5089945;28;20162;-84
2023/08/05 01:06:07;;;;;;;6.25;3.70;;;18.40;99.90;;;;;;5063447;28;20036;-83
2023/08/05 01:08:35;;;;;;;7.25;4.40;;;18.40;99.90;;;;;;5085810;28;20326;-85
2023/08/05 01:11:01;;;;;;;7.72;3.63;;;18.50;99.90;;;;;;5069920;28;20032;-85
2023/08/05 01:13:30;;;;;;;8.27;4.00;;;18.40;99.90;;;;;;5070011;28;20035;-85
2023/08/05 01:15:56;;;;;;;10.07;4.10;;;18.40;99.90;;;;;;5069323;28;20043;-85
2023/08/05 01:18:24;;;;;;;6.68;3.72;;;18.40;99.90;;;;;;5068886;28;20036;-83
2023/08/05 01:20:53;;;;;;;5.43;3.63;;;18.40;99.90;;;;;;5086064;28;20091;-84
2023/08/05 01:23:39;;;;;;;8.32;4.07;;;18.40;99.90;;;;;;5095683;28;20329;-85
2023/08/05 01:26:06;;;;;;;6.30;4.05;;;18.30;99.90;;;;;;5105988;28;20032;-83
2023/08/05 01:28:34;;;;;;;6.50;3.90;;;18.30;99.90;;;;;;5072631;28;20261;-84
2023/08/05 01:31:01;;;;;;;5.63;3.90;;;18.30;99.90;;;;;;5089468;28;20107;-85
2023/08/05 01:33:28;;;;;;;8.90;3.88;;;18.20;99.90;;;;;;5087351;28;20043;-82
2023/08/05 01:35:53;;;;;;;8.05;4.13;;;18.10;99.90;;;;;;5104888;28;20031;-83
2023/08/05 01:38:19;;;;;;;8.45;4.30;;;18.00;99.90;;;;;;5088015;28;20103;-85
2023/08/05 01:40:45;;;;;;;4.20;3.70;;;18.00;99.90;;;;;;5081910;28;20044;-83
2023/08/05 01:43:11;;;;;;;6.45;3.78;;;18.00;99.90;;;;;;5087709;28;20192;-83
2023/08/05 01:45:37;;;;;;;5.50;4.15;;;17.60;99.90;;;;;;5088037;28;20111;-83
2023/08/05 01:48:03;;;;;;;5.50;3.72;;;17.90;99.90;;;;;;5071546;28;20026;-82
2023/08/05 01:50:28;;;;;;;8.18;3.55;;;17.90;99.90;;;;;;5087575;28;20023;-82
2023/08/05 01:52:54;;;;;;;5.47;3.05;;;17.90;99.90;;;;;;5088176;28;20028;-83
2023/08/05 01:55:20;;;;;;;4.60;3.72;;;17.80;99.90;;;;;;5067204;28;20031;-82
2023/08/05 01:57:48;;;;;;;5.57;3.38;;;17.80;99.90;;;;;;5066455;28;20052;-82
2023/08/05 02:00:14;;;;;;;4.93;3.30;;;17.80;99.90;;;;;;5082418;28;20043;-83
2023/08/05 02:02:39;;;;;;;6.13;3.20;;;17.70;99.90;;;;;;5071288;28;20027;-82
2023/08/05 02:05:05;;;;;;;5.60;3.47;;;17.60;99.90;;;;;;5071264;28;20042;-82
2023/08/05 02:07:31;;;;;;;5.82;3.38;;;17.50;99.90;;;;;;5070655;28;20043;-83
2023/08/05 02:09:57;;;;;;;5.82;3.65;;;17.50;99.90;;;;;;5087943;28;20217;-83
2023/08/05 02:12:23;;;;;;;5.30;3.40;;;17.50;99.90;;;;;;5087793;28;20027;-82
2023/08/05 02:14:49;;;;;;;6.10;3.88;;;17.40;99.90;;;;;;5067155;28;20023;-82
2023/08/05 02:17:14;;;;;;;10.65;4.13;;;17.40;99.90;;;;;;5070718;28;20332;-82
2023/08/05 02:19:40;;;;;;;9.55;3.83;;;17.40;99.90;;;;;;5054552;28;20047;-83
2023/08/05 02:22:06;;;;;;;5.57;3.60;;;17.40;99.90;;;;;;5088030;28;20085;-84
2023/08/05 02:24:32;;;;;;;5.50;3.70;;;17.40;99.90;;;;;;5087819;28;20027;-82
2023/08/05 02:26:57;;;;;;;7.28;3.55;;;17.40;99.90;;;;;;5104567;28;20272;-85
2023/08/05 02:29:23;;;;;;;7.22;3.92;;;17.40;99.90;;;;;;5104355;28;20082;-85
2023/08/05 02:31:48;;;;;;;5.93;3.53;;;17.40;99.90;;;;;;5068810;28;20108;-84
2023/08/05 02:34:14;;;;;;;9.02;4.03;;;17.50;99.90;;;;;;5087105;28;20034;-83
2023/08/05 02:36:40;;;;;;;6.95;4.50;;;17.40;99.90;;;;;;5054221;28;20067;-82
2023/08/05 02:39:05;;;;;;;8.75;4.25;;;17.40;99.90;;;;;;5104370;28;20099;-84
2023/08/05 02:41:31;;;;;;;7.22;3.80;;;17.40;99.90;;;;;;5070852;28;20276;-84
2023/08/05 02:43:57;;;;;;;6.43;3.80;;;17.30;99.90;;;;;;5071297;28;20046;-85
2023/08/05 02:46:22;;;;;;;9.18;3.70;;;17.40;99.90;;;;;;5055215;28;20023;-86
2023/08/05 02:48:48;;;;;;;7.28;3.70;;;17.30;99.90;;;;;;5103674;28;20028;-87
2023/08/05 02:51:14;;;;;;;5.50;3.95;;;17.30;99.90;;;;;;5071858;28;20035;-83
2023/08/05 02:53:40;;;;;;;5.10;3.78;;;17.20;99.90;;;;;;5089116;28;20154;-83
2023/08/05 02:56:06;;;;;;;7.82;3.72;;;17.20;99.90;;;;;;5067400;28;20109;-83
2023/08/05 02:58:31;;;;;;;6.45;3.35;;;17.20;99.90;;;;;;5083488;28;20128;-84
2023/08/05 03:01:06;;;;;;;5.93;3.90;;;17.20;99.90;;;;;;5084918;28;20036;-84
2023/08/05 03:03:32;;;;;;;;;;;17.10;99.90;;;;;;5068250;28;20028;-84
2023/08/05 03:05:57;;;;;;;4.70;3.42;;;17.00;99.90;;;;;;5064208;28;19912;-85
2023/08/05 03:08:23;;;;;;;4.28;3.47;;;17.00;99.90;;;;;;5064257;28;20082;-84
2023/08/05 03:10:58;;;;;;;6.30;3.65;;;16.90;99.90;;;;;;5048119;28;20058;-84
2023/08/05 03:13:25;;;;;;;6.18;4.18;;;17.00;99.90;;;;;;5063847;28;20369;-83
2023/08/05 03:15:51;;;;;;;6.18;3.92;;;17.00;99.90;;;;;;5047990;28;20123;-84
2023/08/05 03:18:17;;;;;;;8.02;4.47;;;16.80;99.90;;;;;;5080810;28;20070;-85
2023/08/05 03:20:43;;;;;;;5.03;3.65;;;17.00;99.90;;;;;;5047765;28;20032;-85
2023/08/05 03:23:09;;;;;;;6.10;4.05;;;17.00;99.90;;;;;;5082844;28;20049;-83
2023/08/05 03:25:36;;;;;;;7.05;4.18;;;16.90;99.90;;;;;;5084503;28;20094;-83
2023/08/05 03:28:02;;;;;;;7.40;3.97;;;17.00;99.90;;;;;;5084284;28;20052;-84
2023/08/05 03:30:28;;;;;;;9.00;4.13;;;17.00;99.90;;;;;;5067311;28;20028;-83
2023/08/05 03:32:53;;;;;;;8.27;4.35;;;17.20;99.90;;;;;;5084008;28;20036;-84
2023/08/05 03:35:19;;;;;;;6.13;4.18;;;17.00;99.90;;;;;;5083966;28;20035;-84
2023/08/05 03:37:45;;;;;;;5.68;3.88;;;17.20;99.90;;;;;;5083995;28;20020;-87
2023/08/05 03:40:12;;;;;;;7.38;4.00;;;17.10;99.90;;;;;;5077732;28;20040;-83
2023/08/05 03:42:38;;;;;;;5.25;3.67;;;17.20;99.90;;;;;;5101150;28;20393;-84
2023/08/05 03:45:04;;;;;;;7.35;4.57;;;17.20;99.90;;;;;;5101902;28;20077;-85
2023/08/05 03:47:31;;;;;;;8.73;4.20;;;17.30;99.90;;;;;;5067156;28;20038;-83
2023/08/05 03:49:57;;;;;;;9.65;4.15;;;16.90;99.90;;;;;;5084077;28;20032;-83
2023/08/05 03:52:24;;;;;;;9.32;4.18;;;17.30;99.90;;;;;;5100561;28;20117;-83
2023/08/05 03:54:51;;;;;;;7.07;4.47;;;17.30;99.90;;;;;;5051467;28;20352;-84
2023/08/05 03:57:16;;;;;;;6.20;3.92;;;17.30;99.90;;;;;;5065816;28;20231;-83
2023/08/05 03:59:45;;;;;;;4.85;4.05;;;17.30;99.90;;;;;;5073664;28;20045;-83
2023/08/05 04:02:11;;;;;;;7.85;3.88;;;17.40;99.90;;;;;;5062660;28;20066;-84
2023/08/05 04:04:37;;;;;;;7.25;3.90;;;17.20;99.90;;;;;;5027439;28;20033;-83
2023/08/05 04:07:02;;;;;;;7.13;3.90;;;17.30;99.90;;;;;;5046601;28;20035;-83
2023/08/05 04:09:28;;;;;;;8.65;4.35;;;17.30;99.90;;;;;;5046950;28;20029;-86
2023/08/05 04:11:57;;;;;;;6.30;4.18;;;17.30;99.90;;;;;;5063590;28;20413;-83
2023/08/05 04:14:24;;;;;;;8.18;4.38;;;17.30;99.90;;;;;;5066717;28;20032;-82
2023/08/05 04:16:56;;;;;;;6.88;3.92;;;17.20;99.90;;;;;;5083781;28;20032;-84
2023/08/05 04:19:23;;;;;;;6.15;4.10;;;17.30;99.90;;;;;;5067008;28;20036;-84
2023/08/05 04:21:52;;;;;;;7.00;3.92;;;17.40;99.90;;;;;;5066893;28;20342;-84
2023/08/05 04:24:22;;;;;;;9.38;4.68;;;17.30;99.90;;;;;;5050427;28;20066;-82
2023/08/05 04:26:50;;;;;;;7.43;4.13;;;17.40;99.90;;;;;;5081859;28;20257;-82
2023/08/05 04:29:18;;;;;;;7.05;4.10;;;17.40;99.90;;;;;;5082382;28;20040;-83
2023/08/05 04:31:45;;;;;;;5.20;3.63;;;17.50;99.90;;;;;;5049800;28;20032;-83
2023/08/05 04:34:11;;;;;;;5.75;4.47;;;17.40;99.90;;;;;;5049896;28;20315;-83
2023/08/05 04:36:37;;;;;;;5.57;3.53;;;17.50;99.90;;;;;;5049177;28;20028;-82
2023/08/05 04:39:04;;;;;;;6.97;4.15;;;17.50;99.90;;;;;;5049498;28;20036;-83
2023/08/05 04:41:30;;;;;;;5.78;4.10;;;17.50;99.90;;;;;;5032908;28;20028;-82
2023/08/05 04:43:58;;;;;;;6.07;3.60;;;17.60;99.90;;;;;;5081865;28;20039;-84
2023/08/05 04:46:24;;;;;;;7.88;4.38;;;17.50;99.90;;;;;;5065548;28;20260;-84
2023/08/05 04:48:50;;;;;;;5.63;3.92;;;17.50;99.90;;;;;;5065943;28;20032;-82
2023/08/05 04:51:15;;;;;;;6.38;4.22;;;17.50;99.90;;;;;;5049351;28;20039;-82
2023/08/05 04:53:43;;;;;;;4.05;3.63;;;17.60;99.90;;;;;;5081626;28;20043;-81
2023/08/05 04:56:09;;;;;;;5.50;4.00;;;17.60;99.90;;;;;;5065164;28;20048;-82
2023/08/05 04:58:35;;;;;;;4.53;3.45;;;17.80;99.90;;;;;;5065438;28;20335;-82
2023/08/05 05:01:01;;;;;;;7.10;4.25;;;17.90;99.90;;;;;;5082321;28;20078;-83
2023/08/05 05:03:27;;;;;;;5.32;3.88;;;17.90;99.90;;;;;;5047263;28;20024;-82
2023/08/05 05:05:52;;;;;;;6.65;4.18;;;18.00;99.90;;;;;;5082330;28;20024;-82
2023/08/05 05:08:18;;;;;;;6.75;4.00;;;18.10;99.90;;;;;;5050138;28;20032;-85
2023/08/05 05:10:45;;;;;;;9.10;4.32;;;18.10;99.90;;;;;;5066177;28;20034;-83
2023/08/05 05:13:11;;;;;;;6.72;4.20;;;18.20;99.90;;;;;;5065517;28;20028;-81
2023/08/05 05:15:37;;;;;;;5.50;4.30;;;18.30;99.90;;;;;;5078442;28;20067;-83
2023/08/05 05:18:03;;;;;;;7.80;4.53;;;18.10;99.90;;;;;;5044915;28;20044;-82
2023/08/05 05:20:29;;;;;;;6.82;4.07;;;18.20;99.90;;;;;;5044105;28;20028;-83
2023/08/05 05:22:54;;;;;;;5.35;3.97;;;18.30;99.90;;;;;;5028256;28;20256;-83
2023/08/05 05:25:21;;;;;;;6.32;3.50;;;18.50;99.90;;;;;;5045419;28;20025;-83
2023/08/05 05:27:47;;;;;;;6.22;3.50;;;18.50;99.90;;;;;;5044246;28;20031;-78
2023/08/05 05:30:12;;;;;;;5.18;3.55;;;18.60;99.90;;;;;;5027895;28;20029;-77
2023/08/05 05:32:38;;;;;;;4.13;3.42;;;18.50;99.90;;;;;;5055837;28;20203;-77
2023/08/05 05:35:04;;;;;;;5.45;3.28;;;18.50;99.90;;;;;;5027543;28;20091;-77
2023/08/05 05:37:31;;;;;;;6.50;3.47;;;18.80;99.90;;;;;;5043422;28;20049;-81
2023/08/05 05:39:57;;;;;;;5.50;3.58;;;18.70;99.90;;;;;;5055621;28;20033;-85
2023/08/05 05:42:24;;;;;;;6.35;3.72;;;18.60;99.90;;;;;;5064525;28;20025;-84
2023/08/05 05:44:52;;;;;;;5.75;3.38;;;18.60;99.90;;;;;;5064640;28;20076;-82
2023/08/05 05:47:19;;;;;;;6.45;3.33;;;18.60;99.90;;;;;;5048470;28;20084;-82
2023/08/05 05:49:46;;;;;;;5.00;3.80;;;18.80;99.90;;;;;;5063325;28;20070;-83
2023/08/05 05:52:15;;;;;;;5.30;3.42;;;18.80;99.90;;;;;;5064381;28;20173;-81
2023/08/05 05:54:41;;;;;;;8.35;4.03;;;18.70;99.90;;;;;;5048017;28;20551;-83
2023/08/05 05:57:07;;;;;;;5.70;3.65;;;18.70;99.90;;;;;;5053429;28;20064;-82
2023/08/05 05:59:33;;;;;;;5.28;3.30;;;18.70;99.90;;;;;;5044154;28;20041;-85
2023/08/05 06:01:59;;;;;;;6.13;3.35;;;18.60;99.90;;;;;;5028230;28;20274;-82
2023/08/05 06:04:28;;;;;;;4.75;3.40;;;18.70;99.90;;;;;;5011944;28;20096;-84
2023/08/05 06:06:54;;;;;;;4.20;3.15;;;18.70;99.90;;;;;;5030194;28;20261;-85
2023/08/05 06:09:20;;;;;;;5.25;3.92;;;18.70;99.90;;;;;;5046380;28;20223;-83
2023/08/05 06:11:46;;;;;;;6.18;3.58;;;18.90;99.90;;;;;;5043961;28;20036;-83
2023/08/05 06:14:12;;;;;;;5.03;3.10;;;19.00;99.90;;;;;;5044273;28;20044;-83
2023/08/05 06:16:38;;;;;;;5.15;3.05;;;18.90;99.90;;;;;;5043744;28;20366;-83
2023/08/05 06:19:04;;;;;;;4.18;3.10;;;18.80;99.90;;;;;;5043572;28;20040;-83
2023/08/05 06:21:30;;;;;;;3.60;2.90;;;18.80;99.90;;;;;;5043426;28;20040;-81
2023/08/05 06:23:56;;;;;;;4.28;2.70;;;18.80;99.90;;;;;;5033956;28;20063;-84
2023/08/05 06:26:22;;;;;;;4.55;2.70;;;19.00;99.90;;;;;;5030025;28;20223;-83
2023/08/05 06:28:49;;;;;;;3.35;2.33;;;19.10;99.90;;;;;;5062194;28;20028;-81
2023/08/05 06:31:14;;;;;;;4.85;2.92;;;18.80;99.90;;;;;;5063595;28;20040;-83
2023/08/05 06:33:40;;;;;;;5.43;2.97;;;19.10;99.90;;;;;;5051524;28;20269;-83
2023/08/05 06:36:06;;;;;;;3.75;2.40;;;19.30;99.90;;;;;;5044044;28;20032;-81
2023/08/05 06:38:32;;;;;;;3.15;2.53;;;19.40;99.90;;;;;;5010306;28;20413;-81
2023/08/05 06:40:57;;;;;;;5.10;2.95;;;19.50;99.90;;;;;;5020893;28;20036;-80
2023/08/05 06:43:23;;;;;;;4.45;2.10;;;19.50;99.90;;;;;;5042622;28;20052;-81
2023/08/05 06:45:51;;;;;;;6.05;2.70;;;19.70;99.90;;;;;;5059076;28;20335;-82
2023/08/05 06:48:17;;;;;;;4.25;2.60;;;19.60;99.90;;;;;;5059596;28;20036;-81
2023/08/05 06:50:43;;;;;;;4.38;3.40;;;19.70;99.90;;;;;;5026267;28;20391;-81
2023/08/05 06:53:08;;;;;;;3.78;2.30;;;19.70;99.90;;;;;;5043157;28;20036;-81
2023/08/05 06:55:34;;;;;;;2.92;2.17;;;19.90;99.90;;;;;;5042856;28;20029;-80
2023/08/05 06:58:01;;;;;;;3.70;2.55;;;19.90;99.90;;;;;;5060429;28;20059;-82
2023/08/05 07:00:27;;;;;;;5.20;2.38;;;20.10;99.90;;;;;;5062711;28;20126;-80
2023/08/05 07:02:53;;;;;;;4.80;2.15;;;20.00;99.90;;;;;;5062509;28;20036;-82
2023/08/05 07:05:19;;;;;;;2.78;2.33;;;20.00;99.90;;;;;;5062885;28;20335;-81
2023/08/05 07:07:45;;;;;;;3.00;1.95;;;20.10;99.90;;;;;;5045774;28;20085;-82
2023/08/05 07:10:12;;;;;;;3.45;2.05;;;20.10;99.90;;;;;;5062525;28;20040;-80
2023/08/05 07:12:38;;;;;;;3.70;2.50;;;20.30;99.90;;;;;;5062607;28;20113;-81
2023/08/05 07:15:04;;;;;;;3.15;2.33;;;20.60;99.90;;;;;;5041557;28;20041;-81
2023/08/05 07:17:31;;;;;;;2.58;1.85;;;20.70;99.90;;;;;;5078865;28;20334;-81
2023/08/05 07:19:56;;;;;;;5.93;2.28;;;20.80;99.90;;;;;;5078853;28;20395;-82
2023/08/05 07:22:23;;;;;;;3.88;2.30;;;21.00;99.90;;;;;;5079378;28;20037;-82
2023/08/05 07:24:49;;;;;;;3.45;2.42;;;21.10;99.90;;;;;;5061967;28;20310;-82
2023/08/05 07:27:14;;;;;;;3.22;2.20;;;21.00;99.90;;;;;;5045859;28;20031;-80
2023/08/05 07:29:43;;;;;;;2.55;1.83;;;20.90;99.90;;;;;;5077851;28;20028;-80
2023/08/05 07:32:09;;;;;;;2.30;1.90;;;20.80;99.90;;;;;;5077886;28;20094;-80
2023/08/05 07:34:35;;;;;;;3.88;2.17;;;20.80;99.90;;;;;;5046386;28;20032;-82
2023/08/05 07:37:01;;;;;;;2.42;2.00;;;20.80;99.90;;;;;;5061981;28;20039;-80
2023/08/05 07:39:33;;;;;;;2.95;2.20;;;20.80;99.90;;;;;;5078637;28;20028;-80
2023/08/05 07:42:03;;;;;;;2.45;2.17;;;20.80;99.90;;;;;;5050187;28;20188;-81
2023/08/05 07:44:31;;;;;;;3.42;1.92;;;20.90;99.90;;;;;;5050192;28;20028;-81
2023/08/05 07:47:00;;;;;;;6.63;2.40;;;20.80;99.90;;;;;;5049260;28;20040;-81
2023/08/05 07:49:27;;;;;;;4.00;2.33;;;20.80;99.90;;;;;;5060283;28;20489;-82
2023/08/05 07:51:53;;;;;;;2.90;2.50;;;21.00;99.90;;;;;;5065495;28;20032;-79
2023/08/05 07:54:20;;;;;;;5.05;2.30;;;21.10;99.90;;;;;;5066283;28;20041;-79
2023/08/05 07:56:46;;;;;;;2.63;2.40;;;21.00;99.90;;;;;;5082162;28;20087;-83
2023/08/05 07:59:13;;;;;;;3.35;2.30;;;21.10;99.90;;;;;;5082540;28;20052;-82
2023/08/05 08:01:42;;;;;;;3.28;2.22;;;21.20;99.90;;;;;;5049415;28;20056;-82
2023/08/05 08:04:14;;;;;;;3.90;2.22;;;21.30;99.90;;;;;;5083095;28;20365;-82
2023/08/05 08:06:42;;;;;;;3.33;1.90;;;21.30;99.90;;;;;;5100973;28;20082;-81
2023/08/05 08:09:07;;;;;;;2.35;2.10;;;21.30;99.90;;;;;;5069052;28;20035;-81
2023/08/05 08:11:33;;;;;;;2.95;2.10;;;21.40;99.90;;;;;;5102518;28;20036;-82
2023/08/05 08:13:59;;;;;;;3.00;2.13;;;21.60;99.90;;;;;;5052259;28;20203;-83
2023/08/05 08:16:28;;;;;;;1.75;1.58;;;21.70;99.90;;;;;;5069251;28;20046;-83
2023/08/05 08:18:54;;;;;;;3.35;2.00;;;22.00;99.90;;;;;;5068645;28;20043;-82
2023/08/05 08:21:19;;;;;;;5.00;2.20;;;21.90;99.90;;;;;;5085770;28;20107;-83
2023/08/05 08:23:45;;;;;;;3.97;1.80;;;22.00;99.90;;;;;;5067839;28;20028;-81
2023/08/05 08:26:14;;;;;;;4.03;2.08;;;22.00;99.90;;;;;;5102353;28;20032;-83
2023/08/05 08:28:40;;;;;;;4.75;2.13;;;22.10;99.90;;;;;;5085947;28;20032;-82
2023/08/05 08:31:05;;;;;;;4.28;1.98;;;22.00;99.90;;;;;;5085123;28;20048;-82
2023/08/05 08:33:31;;;;;;;2.38;1.77;;;22.00;99.90;;;;;;5102463;28;20115;-81
2023/08/05 08:35:57;;;;;;;3.03;2.10;;;22.00;99.90;;;;;;5102113;28;20043;-81
2023/08/05 08:38:23;;;;;;;3.33;1.95;;;22.00;99.90;;;;;;5052195;28;20036;-82
2023/08/05 08:40:50;;;;;;;2.28;2.05;;;22.10;99.90;;;;;;5099370;28;20095;-80
2023/08/05 08:43:20;;;;;;;4.25;2.10;;;22.00;99.90;;;;;;5083641;28;20241;-82
2023/08/05 08:45:48;;;;;;;4.28;2.13;;;22.00;99.90;;;;;;5102121;28;20226;-81
2023/08/05 08:48:15;;;;;;;5.25;2.20;;;22.00;99.90;;;;;;5085207;28;20047;-81
2023/08/05 08:50:44;;;;;;;2.22;1.77;;;22.00;99.90;;;;;;5084087;28;20082;-81
2023/08/05 08:53:14;;;;;;;2.40;1.75;;;22.10;99.90;;;;;;5083938;28;20054;-80
2023/08/05 08:55:43;;;;;;;3.58;2.15;;;22.00;99.90;;;;;;5068057;28;20028;-81
2023/08/05 08:58:11;;;;;;;2.38;1.80;;;21.90;99.90;;;;;;5086842;28;20401;-81
2023/08/05 09:00:37;;;;;;;4.53;2.20;;;22.00;99.90;;;;;;5079562;28;20037;-81
2023/08/05 09:03:05;;;;;;;4.30;1.85;;;22.20;99.90;;;;;;5087148;28;20020;-81
2023/08/05 09:05:46;;;;;;;3.63;2.50;;;22.30;99.90;;;;;;5088017;28;20035;-81
2023/08/05 09:08:12;;;;;;;3.15;1.80;;;22.30;99.90;;;;;;5104265;28;20019;-81
2023/08/05 09:10:38;;;;;;;3.65;2.08;;;22.40;99.90;;;;;;5104218;28;20064;-82
2023/08/05 09:13:08;;;;;;;3.22;2.10;;;22.60;99.90;;;;;;5087432;28;20043;-80
2023/08/05 09:15:38;;;;;;;2.88;1.95;;;22.80;99.90;;;;;;5085714;28;20295;-80
2023/08/05 09:18:07;;;;;;;3.38;2.13;;;22.70;99.90;;;;;;5086633;28;20275;-81
2023/08/05 09:20:35;;;;;;;2.80;2.20;;;23.00;99.90;;;;;;5071195;28;20047;-80
2023/08/05 09:23:02;;;;;;;2.50;2.15;;;23.00;99.90;;;;;;5071008;28;20077;-81
2023/08/05 09:25:30;;;;;;;2.08;1.83;;;22.90;99.90;;;;;;5103503;28;20035;-81
2023/08/05 09:27:57;;;;;;;2.50;2.10;;;22.70;99.90;;;;;;5087225;28;20032;-81
2023/08/05 09:30:25;;;;;;;3.05;1.90;;;22.90;99.90;;;;;;5087736;28;20031;-81
2023/08/05 09:32:55;;;;;;;3.05;2.15;;;23.20;99.90;;;;;;5100662;28;20020;-82
2023/08/05 09:35:21;;;;;;;3.47;2.10;;;23.20;99.90;;;;;;5102622;28;20039;-83
2023/08/05 09:37:49;;;;;;;4.40;2.00;;;23.10;99.90;;;;;;5104828;28;20116;-82
2023/08/05 09:40:36;;;;;;;2.90;2.00;;;23.40;99.90;;;;;;5104927;28;20071;-82
2023/08/05 09:43:03;;;;;;;2.33;1.60;;;23.50;99.90;;;;;;5071803;28;20023;-85
2023/08/05 09:45:32;;;;;;;2.95;1.73;;;23.60;99.90;;;;;;5087735;28;20326;-82
2023/08/05 09:48:09;;;;;;;2.70;1.70;;;23.90;99.90;;;;;;5087960;28;20027;-81
2023/08/05 09:50:38;;;;;;;2.05;1.70;;;24.00;99.90;;;;;;5050852;28;20034;-81
2023/08/05 09:53:09;;;;;;;2.58;1.80;;;23.90;99.90;;;;;;5066551;28;20330;-81
2023/08/05 09:55:36;;;;;;;3.65;2.00;;;24.10;99.90;;;;;;5051096;28;20278;-81
2023/08/05 09:58:07;;;;;;;1.90;1.63;;;24.10;99.90;;;;;;5067060;28;20083;-81
2023/08/05 10:00:40;;;;;;;2.80;1.67;;;24.30;99.90;;;;;;5084364;28;20134;-81
2023/08/05 10:03:07;;;;;;;2.17;1.70;;;24.40;99.90;;;;;;5066784;28;20073;-82
2023/08/05 10:05:35;;;;;;;3.45;1.92;;;24.40;99.90;;;;;;5067111;28;20028;-80
2023/08/05 10:08:02;;;;;;;2.67;1.83;;;24.70;99.90;;;;;;5071014;28;20129;-81
2023/08/05 10:10:29;;;;;;;2.65;2.35;;;24.10;99.90;;;;;;5070400;28;20027;-81
2023/08/05 10:13:20;;;;;;;3.55;1.70;;;23.90;99.90;;;;;;5103808;28;20110;-82
2023/08/05 10:15:52;;;;;;;3.13;2.22;;;23.70;99.90;;;;;;5087966;28;20328;-84
2023/08/05 10:18:20;;;;;;;2.08;1.60;;;23.80;99.90;;;;;;5104034;28;20277;-81
2023/08/05 10:20:51;;;;;;;2.33;1.73;;;24.10;99.90;;;;;;5087195;28;20031;-81
2023/08/05 10:23:17;;;;;;;3.35;1.70;;;23.70;99.90;;;;;;5103708;28;20332;-81
2023/08/05 10:25:47;;;;;;;2.58;1.50;;;23.80;99.90;;;;;;5066042;28;20036;-82
2023/08/05 10:28:27;;;;;;;2.78;1.88;;;23.80;99.90;;;;;;5083215;28;20195;-83
2023/08/05 10:30:56;;;;;;;1.77;1.50;;;23.40;99.90;;;;;;5083260;28;20254;-81
2023/08/05 10:33:24;;;;;;;2.42;1.70;;;23.60;99.90;;;;;;5092790;28;20032;-82
2023/08/05 10:35:50;;;;;;;3.90;1.50;;;23.50;99.90;;;;;;5103571;28;20106;-81
2023/08/05 10:38:41;;;;;;;1.98;1.67;;;23.50;99.90;;;;;;5087356;28;20218;-82
2023/08/05 10:41:10;;;;;;;2.50;1.40;;;23.40;99.90;;;;;;5086094;28;20032;-75
2023/08/05 10:43:41;;;;;;;2.08;1.63;;;23.50;99.90;;;;;;5100093;28;20095;-81
2023/08/05 10:46:07;;;;;;;4.07;1.70;;;23.90;99.90;;;;;;5085244;28;20031;-80
2023/08/05 10:48:42;;;;;;;1.88;1.45;;;24.30;99.90;;;;;;5086620;28;20202;-81
2023/08/05 10:51:14;;;;;;;2.20;1.58;;;24.00;99.90;;;;;;5086427;28;20035;-79
2023/08/05 10:53:58;;;;;;;2.10;1.48;;;24.40;99.90;;;;;;5099758;28;20044;-80
2023/08/05 10:56:34;;;;;;;4.47;1.70;;;24.00;99.90;;;;;;5066078;28;20059;-81
2023/08/05 10:59:02;;;;;;;2.22;1.80;;;24.30;99.90;;;;;;5116320;28;20058;-79
2023/08/05 11:01:56;;;;;;;2.15;1.42;;;24.40;99.90;;;;;;5065918;28;20188;-81
2023/08/05 11:04:28;;;;;;;2.80;2.05;;;24.20;99.90;;;;;;5099551;28;20109;-81
2023/08/05 11:06:56;;;;;;;2.08;1.80;;;24.00;99.90;;;;;;5069944;28;20031;-80
2023/08/05 11:09:26;;;;;;;3.95;1.80;;;23.90;99.90;;;;;;5085837;28;20049;-81
2023/08/05 11:11:52;;;;;;;2.47;1.70;;;24.00;99.90;;;;;;5069552;28;20036;-80
2023/08/05 11:14:19;;;;;;;2.40;1.63;;;24.00;99.90;;;;;;5121046;28;20046;-80
2023/08/05 11:16:48;;;;;;;2.72;1.80;;;24.10;99.90;;;;;;5105672;28;20113;-80
2023/08/05 11:19:17;;;;;;;2.58;1.70;;;24.40;99.90;;;;;;5070391;28;20040;-82
2023/08/05 11:21:44;;;;;;;2.97;1.92;;;24.20;99.90;;;;;;5063991;28;20043;-81
2023/08/05 11:24:17;;;;;;;3.10;1.80;;;24.40;99.90;;;;;;5104074;28;20020;-82
2023/08/05 11:26:49;;;;;;;3.47;2.00;;;24.50;99.90;;;;;;5069970;28;20038;-82
2023/08/05 11:29:15;;;;;;;2.75;1.75;;;24.60;99.90;;;;;;5068666;28;20024;-81
2023/08/05 11:31:59;;;;;;;1.88;1.40;;;24.60;99.90;;;;;;5069380;28;20043;-82
2023/08/05 11:34:27;;;;;;;2.35;1.85;;;24.60;99.90;;;;;;5068557;28;20047;-81
2023/08/05 11:36:59;;;;;;;3.13;2.10;;;24.60;99.90;;;;;;5052911;28;20036;-81
2023/08/05 11:39:25;;;;;;;3.85;2.45;;;24.80;99.90;;;;;;5085259;28;20046;-82
2023/08/05 11:41:52;;;;;;;2.28;2.00;;;24.70;99.90;;;;;;5086437;28;20385;-81
2023/08/05 11:44:21;;;;;;;5.00;2.10;;;24.40;99.90;;;;;;5069107;28;20036;-80
2023/08/05 11:46:47;;;;;;;3.70;2.25;;;24.40;99.90;;;;;;5036381;28;20062;-80
2023/08/05 11:49:14;;;;;;;3.08;2.22;;;24.80;99.90;;;;;;5068114;28;20453;-81
2023/08/05 11:51:50;;;;;;;2.85;1.83;;;24.70;99.90;;;;;;5085721;28;20294;-82
2023/08/05 11:54:31;;;;;;;4.35;2.17;;;24.50;99.90;;;;;;5069692;28;20040;-81
2023/08/05 11:56:58;;;;;;;2.75;1.90;;;24.20;99.90;;;;;;5072804;28;20055;-82
2023/08/05 12:00:04;;;;;;;1.50;1.40;;;24.20;99.90;;;;;;5088926;28;20058;-83
2023/08/05 12:02:33;;;;;;;3.42;1.98;;;24.20;95.80;;;;;;5074941;28;20048;-81
2023/08/05 12:05:10;;;;;;;2.97;1.70;;;24.50;96.20;;;;;;5074104;28;20221;-82
2023/08/05 12:07:47;;;;;;;;;;;24.20;90.10;;;;;;5074473;28;20030;-83
2023/08/05 12:10:21;;;;;;;1.92;1.63;;;24.30;99.90;;;;;;5106253;28;19915;-83
2023/08/05 12:12:56;;;;;;;2.72;2.15;;;23.70;99.90;;;;;;5100503;28;20039;-81
2023/08/05 12:15:27;;;;;;;2.55;1.98;;;23.80;50.00;;;;;;5089317;28;20167;-81
2023/08/05 12:18:04;;;;;;;2.80;2.20;;;23.60;80.40;;;;;;5124351;28;20369;-81
2023/08/05 12:20:34;;;;;;;3.10;2.35;;;23.50;99.90;;;;;;5089121;28;20039;-82
2023/08/05 12:23:01;;;;;;;2.47;1.95;;;23.50;99.90;;;;;;5105029;28;20031;-81
2023/08/05 12:25:28;;;;;;;6.18;2.25;;;23.60;99.90;;;;;;5071633;28;20366;-81
2023/08/05 12:27:54;;;;;;;2.47;1.92;;;23.60;99.90;;;;;;5086510;28;20028;-82
2023/08/05 12:30:20;;;;;;;3.58;2.05;;;23.70;99.90;;;;;;5104494;28;20051;-81
2023/08/05 12:32:46;;;;;;;3.25;2.33;;;23.80;99.90;;;;;;5083294;28;20020;-82
2023/08/05 12:35:12;;;;;;;4.60;2.72;;;23.90;99.90;;;;;;5067319;28;20039;-82
2023/08/05 12:37:39;;;;;;;3.30;2.55;;;23.60;99.90;;;;;;5083942;28;20036;-83
2023/08/05 12:40:07;;;;;;;3.05;2.70;;;23.60;99.90;;;;;;5067996;28;20426;-80
2023/08/05 12:42:33;;;;;;;3.03;2.60;;;23.60;99.90;;;;;;5104485;28;20044;-82
2023/08/05 12:45:03;;;;;;;3.03;2.70;;;23.50;99.90;;;;;;5102489;28;20058;-83
2023/08/05 12:47:30;;;;;;;3.60;2.75;;;23.80;99.90;;;;;;5055813;28;20036;-80
2023/08/05 12:49:55;;;;;;;4.13;2.83;;;23.50;99.90;;;;;;5105156;28;20110;-76